sensor_id;sensor_type;location;lat;lon;timestamp;pressure;altitude;pressure_sealevel;temperature;humidity
51261;BME280;61705;46.228;24.812;2023-04-21T00:01:30;97092.81;;;8.17;75.01
51261;BME280;61705;46.228;24.812;2023-04-21T00:03:57;97093.81;;;8.15;75.36
51261;BME280;61705;46.228;24.812;2023-04-21T00:06:25;97090.25;;;8.16;75.14
51261;BME280;61705;46.228;24.812;2023-04-21T00:08:53;97087.75;;;8.13;75.29
51261;BME280;61705;46.228;24.812;2023-04-21T00:11:20;97092.88;;;8.16;75.37
51261;BME280;61705;46.228;24.812;2023-04-21T00:13:47;97092.03;;;8.15;75.38
51261;BME280;61705;46.228;24.812;2023-04-21T00:16:14;97087.59;;;8.16;75.29
51261;BME280;61705;46.228;24.812;2023-04-21T00:18:41;97092.03;;;8.15;75.14
51261;BME280;61705;46.228;24.812;2023-04-21T00:21:08;97092.09;;;8.14;75.20
51261;BME280;61705;46.228;24.812;2023-04-21T00:23:34;97094.72;;;8.14;75.28
51261;BME280;61705;46.228;24.812;2023-04-21T00:26:01;97091.09;;;8.16;75.01
51261;BME280;61705;46.228;24.812;2023-04-21T00:28:28;97088.44;;;8.16;74.85
51261;BME280;61705;46.228;24.812;2023-04-21T00:30:55;97089.13;;;8.21;75.09
51261;BME280;61705;46.228;24.812;2023-04-21T00:33:22;97095.44;;;8.17;75.65
51261;BME280;61705;46.228;24.812;2023-04-21T00:35:49;97094.53;;;8.18;75.57
51261;BME280;61705;46.228;24.812;2023-04-21T00:38:16;97100.84;;;8.14;75.78
51261;BME280;61705;46.228;24.812;2023-04-21T00:40:42;97102.75;;;8.11;76.07
51261;BME280;61705;46.228;24.812;2023-04-21T00:43:09;97102.81;;;8.09;75.97
51261;BME280;61705;46.228;24.812;2023-04-21T00:45:36;97099.91;;;8.15;75.72
51261;BME280;61705;46.228;24.812;2023-04-21T00:48:02;97100.84;;;8.14;75.78
51261;BME280;61705;46.228;24.812;2023-04-21T00:50:29;97105.41;;;8.11;75.70
51261;BME280;61705;46.228;24.812;2023-04-21T00:52:56;97100.97;;;8.11;76.13
51261;BME280;61705;46.228;24.812;2023-04-21T00:55:24;97102.63;;;8.14;75.76
51261;BME280;61705;46.228;24.812;2023-04-21T00:57:51;97096.44;;;8.15;75.71
51261;BME280;61705;46.228;24.812;2023-04-21T01:00:19;97099.84;;;8.17;75.74
51261;BME280;61705;46.228;24.812;2023-04-21T01:02:46;97098.28;;;8.13;76.02
51261;BME280;61705;46.228;24.812;2023-04-21T01:05:13;97107.31;;;8.07;76.19
51261;BME280;61705;46.228;24.812;2023-04-21T01:07:41;97113.47;;;8.06;76.47
51261;BME280;61705;46.228;24.812;2023-04-21T01:10:08;97110.78;;;8.07;75.51
51261;BME280;61705;46.228;24.812;2023-04-21T01:12:45;97106.88;;;8.16;75.15
51261;BME280;61705;46.228;24.812;2023-04-21T01:15:13;97102.31;;;8.20;74.15
51261;BME280;61705;46.228;24.812;2023-04-21T01:17:41;97109.03;;;8.27;73.78
51261;BME280;61705;46.228;24.812;2023-04-21T01:20:11;97107.75;;;8.36;74.24
51261;BME280;61705;46.228;24.812;2023-04-21T01:22:40;97112.09;;;8.37;73.62
51261;BME280;61705;46.228;24.812;2023-04-21T01:25:08;97104.19;;;8.37;73.82
51261;BME280;61705;46.228;24.812;2023-04-21T01:27:35;97114.41;;;8.44;73.89
51261;BME280;61705;46.228;24.812;2023-04-21T01:30:04;97105.59;;;8.45;73.73
51261;BME280;61705;46.228;24.812;2023-04-21T01:32:32;97103.94;;;8.43;74.32
51261;BME280;61705;46.228;24.812;2023-04-21T01:34:59;97106.59;;;8.43;74.50
51261;BME280;61705;46.228;24.812;2023-04-21T01:37:28;97102.50;;;8.36;75.18
51261;BME280;61705;46.228;24.812;2023-04-21T01:39:58;97102.06;;;8.26;75.59
51261;BME280;61705;46.228;24.812;2023-04-21T01:42:27;97101.63;;;8.16;75.87
51261;BME280;61705;46.228;24.812;2023-04-21T01:44:55;97100.72;;;8.17;76.01
51261;BME280;61705;46.228;24.812;2023-04-21T01:47:22;97101.56;;;8.18;76.27
51261;BME280;61705;46.228;24.812;2023-04-21T01:49:50;97110.72;;;8.09;77.07
51261;BME280;61705;46.228;24.812;2023-04-21T01:52:16;97114.81;;;7.96;78.07
51261;BME280;61705;46.228;24.812;2023-04-21T01:54:43;97102.00;;;7.88;79.11
51261;BME280;61705;46.228;24.812;2023-04-21T01:57:10;97098.72;;;7.83;79.20
51261;BME280;61705;46.228;24.812;2023-04-21T01:59:38;97099.72;;;7.80;79.44
51261;BME280;61705;46.228;24.812;2023-04-21T02:02:04;97107.34;;;7.87;79.80
51261;BME280;61705;46.228;24.812;2023-04-21T02:04:31;97104.13;;;7.80;80.12
51261;BME280;61705;46.228;24.812;2023-04-21T02:06:58;97094.59;;;7.77;80.06
51261;BME280;61705;46.228;24.812;2023-04-21T02:09:25;97096.50;;;7.74;81.21
51261;BME280;61705;46.228;24.812;2023-04-21T02:11:54;97092.09;;;7.74;81.06
51261;BME280;61705;46.228;24.812;2023-04-21T02:14:20;97094.38;;;7.82;80.92
51261;BME280;61705;46.228;24.812;2023-04-21T02:16:47;97091.03;;;7.78;81.06
51261;BME280;61705;46.228;24.812;2023-04-21T02:19:14;97088.53;;;7.75;81.13
51261;BME280;61705;46.228;24.812;2023-04-21T02:21:41;97089.72;;;7.68;81.59
51261;BME280;61705;46.228;24.812;2023-04-21T02:24:07;97087.03;;;7.70;81.72
51261;BME280;61705;46.228;24.812;2023-04-21T02:26:34;97091.16;;;7.75;81.84
51261;BME280;61705;46.228;24.812;2023-04-21T02:29:01;97085.13;;;7.73;81.87
51261;BME280;61705;46.228;24.812;2023-04-21T02:31:28;97088.66;;;7.72;81.87
51261;BME280;61705;46.228;24.812;2023-04-21T02:33:55;97083.25;;;7.75;82.13
51261;BME280;61705;46.228;24.812;2023-04-21T02:36:22;97085.16;;;7.72;82.18
51261;BME280;61705;46.228;24.812;2023-04-21T02:38:48;97082.50;;;7.73;82.43
51261;BME280;61705;46.228;24.812;2023-04-21T02:41:16;97087.75;;;7.73;82.63
51261;BME280;61705;46.228;24.812;2023-04-21T02:43:43;97088.66;;;7.72;82.68
51261;BME280;61705;46.228;24.812;2023-04-21T02:46:09;97091.22;;;7.74;82.94
51261;BME280;61705;46.228;24.812;2023-04-21T02:48:36;97081.69;;;7.71;82.88
51261;BME280;61705;46.228;24.812;2023-04-21T02:51:03;97087.09;;;7.68;83.36
51261;BME280;61705;46.228;24.812;2023-04-21T02:53:30;97081.09;;;7.65;83.42
51261;BME280;61705;46.228;24.812;2023-04-21T02:55:57;97078.59;;;7.62;83.56
51261;BME280;61705;46.228;24.812;2023-04-21T02:58:23;97090.13;;;7.59;83.90
51261;BME280;61705;46.228;24.812;2023-04-21T03:00:50;97093.66;;;7.58;83.56
51261;BME280;61705;46.228;24.812;2023-04-21T03:03:17;97082.97;;;7.63;83.63
51261;BME280;61705;46.228;24.812;2023-04-21T03:05:44;97086.50;;;7.62;83.43
51261;BME280;61705;46.228;24.812;2023-04-21T03:08:11;97079.75;;;7.56;83.47
51261;BME280;61705;46.228;24.812;2023-04-21T03:10:37;97086.75;;;7.55;83.70
51261;BME280;61705;46.228;24.812;2023-04-21T03:13:04;97083.22;;;7.56;83.64
51261;BME280;61705;46.228;24.812;2023-04-21T03:15:31;97083.94;;;7.60;83.28
51261;BME280;61705;46.228;24.812;2023-04-21T03:17:58;97087.50;;;7.59;83.29
51261;BME280;61705;46.228;24.812;2023-04-21T03:20:24;97090.38;;;7.53;83.49
51261;BME280;61705;46.228;24.812;2023-04-21T03:22:52;97095.38;;;7.59;83.32
51261;BME280;61705;46.228;24.812;2023-04-21T03:25:19;97096.09;;;7.63;83.25
51261;BME280;61705;46.228;24.812;2023-04-21T03:27:46;97096.38;;;7.56;83.00
51261;BME280;61705;46.228;24.812;2023-04-21T03:30:12;97096.28;;;7.58;82.99
51261;BME280;61705;46.228;24.812;2023-04-21T03:32:39;97101.50;;;7.59;82.64
51261;BME280;61705;46.228;24.812;2023-04-21T03:35:06;97100.69;;;7.57;82.73
51261;BME280;61705;46.228;24.812;2023-04-21T03:37:33;97100.56;;;7.60;82.81
51261;BME280;61705;46.228;24.812;2023-04-21T03:40:00;97106.75;;;7.59;82.77
51261;BME280;61705;46.228;24.812;2023-04-21T03:42:26;97105.09;;;7.57;82.84
51261;BME280;61705;46.228;24.812;2023-04-21T03:44:55;97118.38;;;7.54;83.27
51261;BME280;61705;46.228;24.812;2023-04-21T03:47:22;97119.94;;;7.58;83.03
51261;BME280;61705;46.228;24.812;2023-04-21T03:49:48;97119.19;;;7.56;82.85
51261;BME280;61705;46.228;24.812;2023-04-21T03:52:15;97121.84;;;7.54;83.08
51261;BME280;61705;46.228;24.812;2023-04-21T03:54:42;97125.88;;;7.63;82.58
51261;BME280;61705;46.228;24.812;2023-04-21T03:57:08;97123.03;;;7.68;82.29
51261;BME280;61705;46.228;24.812;2023-04-21T03:59:35;97117.00;;;7.66;82.50
51261;BME280;61705;46.228;24.812;2023-04-21T04:02:02;97121.00;;;7.74;82.17
51261;BME280;61705;46.228;24.812;2023-04-21T04:04:29;97124.16;;;7.82;81.21
51261;BME280;61705;46.228;24.812;2023-04-21T04:06:56;97122.19;;;7.88;80.96
51261;BME280;61705;46.228;24.812;2023-04-21T04:09:23;97118.44;;;7.93;80.85
51261;BME280;61705;46.228;24.812;2023-04-21T04:11:49;97122.53;;;8.00;80.51
51261;BME280;61705;46.228;24.812;2023-04-21T04:14:16;97118.03;;;8.02;79.83
51261;BME280;61705;46.228;24.812;2023-04-21T04:16:43;97117.66;;;8.10;79.70
51261;BME280;61705;46.228;24.812;2023-04-21T04:19:10;97124.66;;;8.11;79.25
51261;BME280;61705;46.228;24.812;2023-04-21T04:21:37;97133.19;;;8.16;78.89
51261;BME280;61705;46.228;24.812;2023-04-21T04:24:04;97133.91;;;8.20;78.84
51261;BME280;61705;46.228;24.812;2023-04-21T04:26:31;97130.28;;;8.22;78.85
51261;BME280;61705;46.228;24.812;2023-04-21T04:29:01;97131.09;;;8.24;78.83
51261;BME280;61705;46.228;24.812;2023-04-21T04:31:30;97139.75;;;8.26;78.63
51261;BME280;61705;46.228;24.812;2023-04-21T04:33:58;97133.13;;;8.38;78.40
51261;BME280;61705;46.228;24.812;2023-04-21T04:36:24;97140.53;;;8.49;78.22
51261;BME280;61705;46.228;24.812;2023-04-21T04:38:56;97141.59;;;8.64;78.05
51261;BME280;61705;46.228;24.812;2023-04-21T04:41:23;97143.69;;;8.76;78.02
51261;BME280;61705;46.228;24.812;2023-04-21T04:43:50;97133.06;;;8.96;77.49
51261;BME280;61705;46.228;24.812;2023-04-21T04:46:17;97140.44;;;9.07;76.97
51261;BME280;61705;46.228;24.812;2023-04-21T04:48:46;97135.09;;;9.09;76.45
51261;BME280;61705;46.228;24.812;2023-04-21T04:51:12;97133.78;;;9.17;76.15
51261;BME280;61705;46.228;24.812;2023-04-21T04:53:39;97138.63;;;9.27;75.67
51261;BME280;61705;46.228;24.812;2023-04-21T04:56:06;97142.97;;;9.28;74.95
51261;BME280;61705;46.228;24.812;2023-04-21T04:58:33;97144.59;;;9.30;73.81
51261;BME280;61705;46.228;24.812;2023-04-21T05:01:12;97133.19;;;9.30;73.06
51261;BME280;61705;46.228;24.812;2023-04-21T05:03:39;97134.81;;;9.32;72.71
51261;BME280;61705;46.228;24.812;2023-04-21T05:06:06;97134.38;;;9.41;72.61
51261;BME280;61705;46.228;24.812;2023-04-21T05:08:33;97133.38;;;9.44;71.84
51261;BME280;61705;46.228;24.812;2023-04-21T05:10:59;97130.66;;;9.45;71.83
51261;BME280;61705;46.228;24.812;2023-04-21T05:13:26;97130.78;;;9.42;71.02
51261;BME280;61705;46.228;24.812;2023-04-21T05:15:57;97131.59;;;9.44;70.41
51261;BME280;61705;46.228;24.812;2023-04-21T05:18:24;97124.97;;;9.36;69.85
51261;BME280;61705;46.228;24.812;2023-04-21T05:20:51;97133.03;;;9.33;70.29
51261;BME280;61705;46.228;24.812;2023-04-21T05:23:17;97141.88;;;9.32;69.91
51261;BME280;61705;46.228;24.812;2023-04-21T05:25:44;97130.47;;;9.31;70.09
51261;BME280;61705;46.228;24.812;2023-04-21T05:28:11;97131.09;;;9.36;70.17
51261;BME280;61705;46.228;24.812;2023-04-21T05:30:37;97123.97;;;9.38;69.59
51261;BME280;61705;46.228;24.812;2023-04-21T05:33:04;97116.06;;;9.38;69.30
51261;BME280;61705;46.228;24.812;2023-04-21T05:35:31;97111.59;;;9.40;69.73
51261;BME280;61705;46.228;24.812;2023-04-21T05:37:58;97122.13;;;9.40;69.81
51261;BME280;61705;46.228;24.812;2023-04-21T05:40:25;97125.53;;;9.42;69.89
51261;BME280;61705;46.228;24.812;2023-04-21T05:42:51;97136.63;;;9.49;70.04
51261;BME280;61705;46.228;24.812;2023-04-21T05:45:18;97131.03;;;9.55;68.69
51261;BME280;61705;46.228;24.812;2023-04-21T05:47:45;97135.00;;;9.64;68.09
51261;BME280;61705;46.228;24.812;2023-04-21T05:50:11;97145.38;;;9.67;68.01
51261;BME280;61705;46.228;24.812;2023-04-21T05:52:38;97140.44;;;9.78;67.94
51261;BME280;61705;46.228;24.812;2023-04-21T05:55:08;97134.91;;;9.83;67.42
51261;BME280;61705;46.228;24.812;2023-04-21T05:57:34;97136.31;;;9.90;66.90
51261;BME280;61705;46.228;24.812;2023-04-21T06:00:01;97142.28;;;9.93;66.64
51261;BME280;61705;46.228;24.812;2023-04-21T06:02:28;97139.59;;;9.95;66.77
51261;BME280;61705;46.228;24.812;2023-04-21T06:04:55;97147.25;;;10.00;66.93
51261;BME280;61705;46.228;24.812;2023-04-21T06:07:22;97137.00;;;9.93;66.55
51261;BME280;61705;46.228;24.812;2023-04-21T06:09:49;97144.16;;;9.91;66.79
51261;BME280;61705;46.228;24.812;2023-04-21T06:12:16;97138.09;;;9.89;66.73
51261;BME280;61705;46.228;24.812;2023-04-21T06:14:43;97139.41;;;9.98;66.95
51261;BME280;61705;46.228;24.812;2023-04-21T06:17:10;97134.06;;;10.00;66.71
51261;BME280;61705;46.228;24.812;2023-04-21T06:19:37;97145.47;;;10.00;66.02
51261;BME280;61705;46.228;24.812;2023-04-21T06:22:06;97139.34;;;10.00;66.33
51261;BME280;61705;46.228;24.812;2023-04-21T06:24:32;97147.25;;;10.00;66.63
51261;BME280;61705;46.228;24.812;2023-04-21T06:26:59;97142.25;;;10.11;66.68
51261;BME280;61705;46.228;24.812;2023-04-21T06:29:27;97136.91;;;10.12;66.36
51261;BME280;61705;46.228;24.812;2023-04-21T06:31:53;97141.56;;;10.07;66.31
51261;BME280;61705;46.228;24.812;2023-04-21T06:34:20;97136.91;;;10.12;65.86
51261;BME280;61705;46.228;24.812;2023-04-21T06:36:47;97136.22;;;10.09;65.88
51261;BME280;61705;46.228;24.812;2023-04-21T06:39:14;97136.13;;;10.10;65.93
51261;BME280;61705;46.228;24.812;2023-04-21T06:41:41;97135.97;;;10.13;66.25
51261;BME280;61705;46.228;24.812;2023-04-21T06:44:07;97137.19;;;10.24;65.81
51261;BME280;61705;46.228;24.812;2023-04-21T06:46:34;97128.13;;;10.29;65.72
51261;BME280;61705;46.228;24.812;2023-04-21T06:49:01;97131.47;;;10.33;65.37
51261;BME280;61705;46.228;24.812;2023-04-21T06:51:28;97129.00;;;10.46;65.52
51261;BME280;61705;46.228;24.812;2023-04-21T06:53:54;97133.28;;;10.48;65.19
51261;BME280;61705;46.228;24.812;2023-04-21T06:56:21;97132.78;;;10.57;65.32
51261;BME280;61705;46.228;24.812;2023-04-21T06:58:48;97136.00;;;10.62;65.14
51261;BME280;61705;46.228;24.812;2023-04-21T07:01:14;97139.28;;;10.67;64.96
51261;BME280;61705;46.228;24.812;2023-04-21T07:03:41;97134.25;;;10.79;64.84
51261;BME280;61705;46.228;24.812;2023-04-21T07:06:09;97131.69;;;10.93;64.50
51261;BME280;61705;46.228;24.812;2023-04-21T07:08:36;97136.38;;;11.04;64.55
51261;BME280;61705;46.228;24.812;2023-04-21T07:11:03;97126.81;;;11.17;63.98
51261;BME280;61705;46.228;24.812;2023-04-21T07:13:32;97131.19;;;11.18;63.31
51261;BME280;61705;46.228;24.812;2023-04-21T07:15:59;97133.38;;;11.26;63.28
51261;BME280;61705;46.228;24.812;2023-04-21T07:18:29;97126.03;;;11.31;62.97
51261;BME280;61705;46.228;24.812;2023-04-21T07:20:56;97131.91;;;11.36;62.33
51261;BME280;61705;46.228;24.812;2023-04-21T07:23:23;97121.38;;;11.50;61.93
51261;BME280;61705;46.228;24.812;2023-04-21T07:25:49;97128.03;;;11.57;61.40
51261;BME280;61705;46.228;24.812;2023-04-21T07:28:17;97127.47;;;11.52;61.30
51261;BME280;61705;46.228;24.812;2023-04-21T07:30:43;97123.84;;;11.53;61.15
51261;BME280;61705;46.228;24.812;2023-04-21T07:33:13;97120.19;;;11.56;60.87
51261;BME280;61705;46.228;24.812;2023-04-21T07:35:40;97124.69;;;11.70;60.71
51261;BME280;61705;46.228;24.812;2023-04-21T07:38:07;97119.09;;;11.74;60.75
51261;BME280;61705;46.228;24.812;2023-04-21T07:40:34;97115.78;;;11.87;60.50
51261;BME280;61705;46.228;24.812;2023-04-21T07:43:01;97117.72;;;11.83;60.06
51261;BME280;61705;46.228;24.812;2023-04-21T07:45:28;97118.06;;;11.77;59.91
51261;BME280;61705;46.228;24.812;2023-04-21T07:47:54;97119.34;;;11.85;59.56
51261;BME280;61705;46.228;24.812;2023-04-21T07:50:21;97120.09;;;11.88;59.13
51261;BME280;61705;46.228;24.812;2023-04-21T07:52:48;97118.97;;;11.92;58.87
51261;BME280;61705;46.228;24.812;2023-04-21T07:55:17;97124.09;;;12.09;58.79
51261;BME280;61705;46.228;24.812;2023-04-21T07:57:43;97123.44;;;12.20;58.50
51261;BME280;61705;46.228;24.812;2023-04-21T08:00:10;97115.97;;;12.26;58.40
51261;BME280;61705;46.228;24.812;2023-04-21T08:02:37;97115.78;;;12.44;57.86
51261;BME280;61705;46.228;24.812;2023-04-21T08:05:04;97111.47;;;12.28;57.36
51261;BME280;61705;46.228;24.812;2023-04-21T08:07:31;97111.94;;;12.21;57.63
51261;BME280;61705;46.228;24.812;2023-04-21T08:09:58;97110.88;;;12.23;57.65
51261;BME280;61705;46.228;24.812;2023-04-21T08:12:25;97111.16;;;12.33;57.75
51261;BME280;61705;46.228;24.812;2023-04-21T08:14:52;97107.31;;;12.24;57.42
51261;BME280;61705;46.228;24.812;2023-04-21T08:17:21;97119.22;;;12.17;57.08
51261;BME280;61705;46.228;24.812;2023-04-21T08:19:48;97111.47;;;12.14;57.56
51261;BME280;61705;46.228;24.812;2023-04-21T08:22:15;97112.19;;;12.16;57.27
51261;BME280;61705;46.228;24.812;2023-04-21T08:24:41;97108.88;;;12.13;56.01
51261;BME280;61705;46.228;24.812;2023-04-21T08:27:08;97103.31;;;12.17;55.98
51261;BME280;61705;46.228;24.812;2023-04-21T08:29:35;97107.19;;;12.26;55.41
51261;BME280;61705;46.228;24.812;2023-04-21T08:32:02;97094.41;;;12.32;55.27
51261;BME280;61705;46.228;24.812;2023-04-21T08:34:29;97103.22;;;12.33;54.98
51261;BME280;61705;46.228;24.812;2023-04-21T08:36:56;97101.69;;;12.57;55.25
51261;BME280;61705;46.228;24.812;2023-04-21T08:39:23;97091.28;;;12.69;54.71
51261;BME280;61705;46.228;24.812;2023-04-21T08:41:50;97091.25;;;12.83;54.05
51261;BME280;61705;46.228;24.812;2023-04-21T08:44:17;97090.84;;;12.89;53.17
51261;BME280;61705;46.228;24.812;2023-04-21T08:46:49;97082.72;;;12.92;51.83
51261;BME280;61705;46.228;24.812;2023-04-21T08:49:18;97085.25;;;13.21;52.41
51261;BME280;61705;46.228;24.812;2023-04-21T08:51:47;97082.50;;;13.22;52.06
51261;BME280;61705;46.228;24.812;2023-04-21T08:54:13;97075.56;;;13.34;51.86
51261;BME280;61705;46.228;24.812;2023-04-21T08:56:41;97071.63;;;13.27;50.60
51261;BME280;61705;46.228;24.812;2023-04-21T08:59:07;97073.97;;;13.32;50.56
51261;BME280;61705;46.228;24.812;2023-04-21T09:04:44;97065.72;;;13.49;49.62
51261;BME280;61705;46.228;24.812;2023-04-21T09:07:32;97065.41;;;13.54;49.11
51261;BME280;61705;46.228;24.812;2023-04-21T09:09:59;97063.81;;;13.64;48.67
51261;BME280;61705;46.228;24.812;2023-04-21T09:12:27;97062.34;;;13.60;48.91
51261;BME280;61705;46.228;24.812;2023-04-21T09:14:54;97066.28;;;13.54;48.94
51261;BME280;61705;46.228;24.812;2023-04-21T09:17:29;97058.28;;;13.41;48.73
51261;BME280;61705;46.228;24.812;2023-04-21T09:20:20;97060.09;;;13.41;48.98
51261;BME280;61705;46.228;24.812;2023-04-21T09:22:49;97058.53;;;13.77;48.65
51261;BME280;61705;46.228;24.812;2023-04-21T09:25:22;97050.69;;;14.01;47.95
51261;BME280;61705;46.228;24.812;2023-04-21T09:27:52;97051.41;;;14.41;47.31
51261;BME280;61705;46.228;24.812;2023-04-21T09:30:19;97051.91;;;14.46;47.44
51261;BME280;61705;46.228;24.812;2023-04-21T09:32:46;97042.38;;;14.31;47.45
51261;BME280;61705;46.228;24.812;2023-04-21T09:35:13;97051.53;;;14.27;47.70
51261;BME280;61705;46.228;24.812;2023-04-21T09:37:42;97047.78;;;14.42;47.41
51261;BME280;61705;46.228;24.812;2023-04-21T09:40:12;97043.94;;;14.46;47.01
51261;BME280;61705;46.228;24.812;2023-04-21T09:42:40;97040.75;;;14.66;46.91
51261;BME280;61705;46.228;24.812;2023-04-21T09:45:10;97031.50;;;14.59;46.09
51261;BME280;61705;46.228;24.812;2023-04-21T09:47:41;97030.81;;;14.81;46.69
51261;BME280;61705;46.228;24.812;2023-04-21T09:50:10;97031.72;;;15.17;45.99
51261;BME280;61705;46.228;24.812;2023-04-21T09:52:38;97024.88;;;15.02;45.23
51261;BME280;61705;46.228;24.812;2023-04-21T09:55:07;97020.53;;;15.25;45.73
51261;BME280;61705;46.228;24.812;2023-04-21T09:57:37;97021.13;;;15.63;45.33
51261;BME280;61705;46.228;24.812;2023-04-21T10:00:05;97027.75;;;15.58;44.71
51261;BME280;61705;46.228;24.812;2023-04-21T10:02:35;97023.16;;;15.49;44.15
51261;BME280;61705;46.228;24.812;2023-04-21T10:05:05;97021.56;;;15.81;44.49
51261;BME280;61705;46.228;24.812;2023-04-21T10:07:32;97014.56;;;15.56;44.07
51261;BME280;61705;46.228;24.812;2023-04-21T10:09:59;97012.94;;;15.78;44.42
51261;BME280;61705;46.228;24.812;2023-04-21T10:12:26;97017.53;;;15.40;44.38
51261;BME280;61705;46.228;24.812;2023-04-21T10:14:53;97026.19;;;15.31;44.86
51261;BME280;61705;46.228;24.812;2023-04-21T10:17:25;97021.28;;;15.38;44.43
51261;BME280;61705;46.228;24.812;2023-04-21T10:20:00;97028.03;;;15.31;43.75
51261;BME280;61705;46.228;24.812;2023-04-21T10:22:32;97028.59;;;15.23;43.62
51261;BME280;61705;46.228;24.812;2023-04-21T10:25:00;97027.78;;;15.34;43.12
51261;BME280;61705;46.228;24.812;2023-04-21T10:27:34;97031.88;;;15.27;43.16
51261;BME280;61705;46.228;24.812;2023-04-21T10:30:01;97023.28;;;15.23;43.58
51261;BME280;61705;46.228;24.812;2023-04-21T10:32:45;97033.03;;;15.11;43.30
51261;BME280;61705;46.228;24.812;2023-04-21T10:35:20;97038.41;;;14.99;43.71
51261;BME280;61705;46.228;24.812;2023-04-21T10:37:50;97029.63;;;14.85;43.92
51261;BME280;61705;46.228;24.812;2023-04-21T10:40:34;97032.16;;;14.87;44.24
51261;BME280;61705;46.228;24.812;2023-04-21T10:43:04;97026.53;;;14.91;44.35
51261;BME280;61705;46.228;24.812;2023-04-21T10:45:34;97039.78;;;15.04;44.23
51261;BME280;61705;46.228;24.812;2023-04-21T10:48:07;97034.59;;;15.14;44.30
51261;BME280;61705;46.228;24.812;2023-04-21T10:50:38;97030.06;;;15.27;44.23
51261;BME280;61705;46.228;24.812;2023-04-21T10:53:08;97032.53;;;15.41;44.13
51261;BME280;61705;46.228;24.812;2023-04-21T10:55:36;97037.16;;;15.75;43.59
51261;BME280;61705;46.228;24.812;2023-04-21T10:58:04;97029.91;;;15.77;42.98
51261;BME280;61705;46.228;24.812;2023-04-21T11:00:31;97031.00;;;15.85;42.84
51261;BME280;61705;46.228;24.812;2023-04-21T11:02:59;97023.84;;;15.86;42.36
51261;BME280;61705;46.228;24.812;2023-04-21T11:05:30;97019.88;;;15.92;42.47
51261;BME280;61705;46.228;24.812;2023-04-21T11:10:40;97020.50;;;15.60;42.94
51261;BME280;61705;46.228;24.812;2023-04-21T11:13:06;97026.38;;;15.41;43.27
51261;BME280;61705;46.228;24.812;2023-04-21T11:15:33;97026.09;;;15.33;43.16
51261;BME280;61705;46.228;24.812;2023-04-21T11:18:00;97019.81;;;15.34;42.77
51261;BME280;61705;46.228;24.812;2023-04-21T11:20:26;97028.16;;;15.29;42.75
51261;BME280;61705;46.228;24.812;2023-04-21T11:22:55;97022.47;;;15.34;42.91
51261;BME280;61705;46.228;24.812;2023-04-21T11:25:21;97027.22;;;15.41;43.09
51261;BME280;61705;46.228;24.812;2023-04-21T11:27:52;97035.88;;;15.56;43.17
51261;BME280;61705;46.228;24.812;2023-04-21T11:30:19;97022.81;;;15.64;42.39
51261;BME280;61705;46.228;24.812;2023-04-21T11:32:45;97019.13;;;15.78;41.87
51261;BME280;61705;46.228;24.812;2023-04-21T11:35:18;97026.31;;;16.00;42.07
51261;BME280;61705;46.228;24.812;2023-04-21T11:37:45;97029.22;;;16.08;41.47
51261;BME280;61705;46.228;24.812;2023-04-21T11:40:15;97019.03;;;16.14;40.81
51261;BME280;61705;46.228;24.812;2023-04-21T11:42:41;97024.00;;;16.29;40.99
51261;BME280;61705;46.228;24.812;2023-04-21T11:45:14;97013.69;;;16.47;40.73
51261;BME280;61705;46.228;24.812;2023-04-21T11:47:41;97019.16;;;16.46;40.42
51261;BME280;61705;46.228;24.812;2023-04-21T11:50:08;97011.28;;;16.55;40.29
51261;BME280;61705;46.228;24.812;2023-04-21T11:52:35;97016.25;;;16.49;39.91
51261;BME280;61705;46.228;24.812;2023-04-21T11:55:04;97010.94;;;16.38;40.10
51261;BME280;61705;46.228;24.812;2023-04-21T11:57:31;97015.53;;;16.35;40.84
51261;BME280;61705;46.228;24.812;2023-04-21T11:59:59;97012.97;;;16.23;40.26
51261;BME280;61705;46.228;24.812;2023-04-21T12:02:34;97021.22;;;16.08;40.73
51261;BME280;61705;46.228;24.812;2023-04-21T12:07:35;97008.97;;;15.95;40.92
51261;BME280;61705;46.228;24.812;2023-04-21T12:10:07;97009.31;;;15.79;40.30
51261;BME280;61705;46.228;24.812;2023-04-21T12:12:37;97006.03;;;15.75;39.58
51261;BME280;61705;46.228;24.812;2023-04-21T12:15:07;97002.78;;;15.83;39.89
51261;BME280;61705;46.228;24.812;2023-04-21T12:20:05;97001.59;;;15.98;39.65
51261;BME280;61705;46.228;24.812;2023-04-21T12:22:36;96996.63;;;16.16;39.87
51261;BME280;61705;46.228;24.812;2023-04-21T12:25:05;97007.03;;;16.19;39.47
51261;BME280;61705;46.228;24.812;2023-04-21T12:27:32;97011.66;;;16.28;39.43
51261;BME280;61705;46.228;24.812;2023-04-21T12:29:58;97004.38;;;16.42;39.56
51261;BME280;61705;46.228;24.812;2023-04-21T12:32:25;97008.28;;;16.38;39.59
51261;BME280;61705;46.228;24.812;2023-04-21T12:34:52;97011.78;;;16.38;39.82
51261;BME280;61705;46.228;24.812;2023-04-21T12:37:18;97007.41;;;16.26;40.46
51261;BME280;61705;46.228;24.812;2023-04-21T12:39:45;97003.75;;;16.27;40.44
51261;BME280;61705;46.228;24.812;2023-04-21T12:42:12;97002.69;;;16.29;40.36
51261;BME280;61705;46.228;24.812;2023-04-21T12:44:38;97011.91;;;16.25;40.48
51261;BME280;61705;46.228;24.812;2023-04-21T12:47:05;97005.97;;;16.22;40.64
51261;BME280;61705;46.228;24.812;2023-04-21T12:49:32;97003.78;;;16.16;40.41
51261;BME280;61705;46.228;24.812;2023-04-21T12:51:59;97004.13;;;16.00;40.50
51261;BME280;61705;46.228;24.812;2023-04-21T12:54:25;97000.75;;;15.86;40.88
51261;BME280;61705;46.228;24.812;2023-04-21T12:56:52;96996.97;;;15.78;41.07
51261;BME280;61705;46.228;24.812;2023-04-21T12:59:19;96998.56;;;15.80;41.35
51261;BME280;61705;46.228;24.812;2023-04-21T13:01:45;96998.78;;;15.77;41.02
51261;BME280;61705;46.228;24.812;2023-04-21T13:04:12;97001.06;;;15.82;41.08
51261;BME280;61705;46.228;24.812;2023-04-21T13:06:39;97003.03;;;16.02;41.02
51261;BME280;61705;46.228;24.812;2023-04-21T13:09:05;96997.84;;;16.12;40.76